Time;durP1;ratioP1;P1;durP2;ratioP2;P2;SDS_P1;SDS_P2;PMS_P1;PMS_P2;Temp;Humidity;BMP_temperature;BMP_pressure;BME280_temperature;BME280_humidity;BME280_pressure;Samples;Min_cycle;Max_cycle;Signal;HPM_P1;HPM_P2
2022/10/13 00:00:26;;;;;;;19.02;12.77;;;11.60;99.90;;;;;;5016639;28;20014;-62
2022/10/13 00:02:52;;;;;;;16.48;11.90;;;11.60;99.90;;;;;;5031445;28;20025;-62
2022/10/13 00:05:18;;;;;;;19.08;12.50;;;11.70;99.90;;;;;;5030525;28;20017;-62
2022/10/13 00:07:43;;;;;;;20.20;11.63;;;11.70;99.90;;;;;;5032370;28;20013;-62
2022/10/13 00:10:09;;;;;;;21.42;12.00;;;11.60;99.90;;;;;;5030077;28;20481;-62
2022/10/13 00:12:38;;;;;;;19.88;12.27;;;11.70;99.90;;;;;;5031355;28;20041;-62
2022/10/13 00:15:06;;;;;;;19.55;11.90;;;11.70;99.90;;;;;;5019045;28;20482;-62
2022/10/13 00:17:32;;;;;;;21.13;12.07;;;11.80;99.90;;;;;;5030991;28;20432;-62
2022/10/13 00:19:57;;;;;;;17.15;12.38;;;11.80;99.90;;;;;;5031111;28;20504;-62
2022/10/13 00:22:23;;;;;;;21.55;11.88;;;11.90;99.90;;;;;;5029282;28;20373;-62
2022/10/13 00:24:52;;;;;;;24.92;13.77;;;11.90;99.90;;;;;;5030846;28;20049;-62
2022/10/13 00:27:19;;;;;;;19.58;12.05;;;11.90;99.90;;;;;;5030720;28;20045;-62
2022/10/13 00:29:44;;;;;;;20.35;13.68;;;11.90;99.90;;;;;;5031084;28;20052;-62
2022/10/13 00:32:10;;;;;;;20.23;12.27;;;11.90;99.90;;;;;;5030804;28;20469;-62
2022/10/13 00:34:37;;;;;;;20.20;12.40;;;11.90;99.90;;;;;;5030777;28;20493;-62
2022/10/13 00:37:03;;;;;;;21.48;12.73;;;11.90;99.90;;;;;;5030594;28;20493;-62
2022/10/13 00:39:29;;;;;;;19.80;12.70;;;11.90;99.90;;;;;;5030897;28;20025;-62
2022/10/13 00:41:57;;;;;;;18.45;12.02;;;11.90;99.90;;;;;;5030622;28;20045;-62
2022/10/13 00:44:59;;;;;;;20.23;12.40;;;11.90;99.90;;;;;;5030812;28;20026;-62
2022/10/13 00:47:29;;;;;;;19.83;12.48;;;11.90;99.90;;;;;;5030351;28;20440;-62
2022/10/13 00:49:55;;;;;;;21.33;13.85;;;11.90;99.90;;;;;;5030828;28;20049;-62
2022/10/13 00:52:24;;;;;;;16.27;11.48;;;11.90;99.90;;;;;;5025721;28;20063;-62
2022/10/13 00:54:50;;;;;;;22.55;13.23;;;11.90;99.90;;;;;;5030287;28;20060;-62
2022/10/13 00:57:17;;;;;;;17.35;11.02;;;11.90;99.90;;;;;;5031906;28;20029;-62
2022/10/13 00:59:43;;;;;;;20.75;13.02;;;11.90;99.90;;;;;;5028807;28;20022;-62
2022/10/13 01:02:08;;;;;;;21.15;13.68;;;11.90;99.90;;;;;;5030835;28;20020;-62
2022/10/13 01:04:39;;;;;;;21.77;12.95;;;11.90;99.90;;;;;;5030647;28;20093;-62
2022/10/13 01:07:05;;;;;;;17.88;12.85;;;11.90;99.90;;;;;;5030488;28;20450;-62
2022/10/13 01:09:36;;;;;;;17.80;12.98;;;11.90;99.90;;;;;;5030882;28;20362;-62
2022/10/13 01:12:26;;;;;;;18.63;12.88;;;11.90;99.90;;;;;;5030447;28;20473;-62
2022/10/13 01:15:00;;;;;;;18.40;12.38;;;11.90;99.90;;;;;;5043815;28;20025;-62
2022/10/13 01:17:57;;;;;;;19.10;11.95;;;11.90;99.90;;;;;;5030439;28;20497;-62
2022/10/13 01:20:50;;;;;;;20.83;13.55;;;11.90;99.90;;;;;;5023863;28;20371;-62
2022/10/13 01:23:22;;;;;;;19.38;13.15;;;11.90;99.90;;;;;;5034254;28;20029;-62
2022/10/13 01:26:14;;;;;;;22.55;12.30;;;11.90;99.90;;;;;;5034057;28;20045;-62
2022/10/13 01:29:03;;;;;;;20.30;12.05;;;11.90;99.90;;;;;;5032229;28;20029;-62
2022/10/13 01:31:33;;;;;;;20.40;13.73;;;11.90;99.90;;;;;;5033385;28;20026;-62
2022/10/13 01:34:20;;;;;;;19.80;13.13;;;11.90;99.90;;;;;;5034002;28;20748;-62
2022/10/13 01:36:55;;;;;;;15.95;12.48;;;11.90;99.90;;;;;;5049560;28;20403;-62
2022/10/13 01:39:54;;;;;;;20.80;12.35;;;11.90;99.90;;;;;;5033611;28;20010;-62
2022/10/13 01:42:36;;;;;;;19.08;12.55;;;11.90;99.90;;;;;;5016315;28;20046;-62
2022/10/13 01:45:02;;;;;;;20.77;12.57;;;12.00;99.90;;;;;;5033999;28;20037;-62
2022/10/13 01:47:31;;;;;;;19.08;12.43;;;12.00;99.90;;;;;;5047643;28;20400;-62
2022/10/13 01:49:58;;;;;;;21.20;12.20;;;12.00;99.90;;;;;;5033923;28;20115;-62
2022/10/13 01:52:26;;;;;;;21.42;12.48;;;12.00;99.90;;;;;;5031388;28;20025;-62
2022/10/13 01:54:53;;;;;;;23.60;13.70;;;12.00;99.90;;;;;;5033923;28;20036;-62
2022/10/13 01:57:36;;;;;;;17.65;11.95;;;12.00;99.90;;;;;;5033430;28;20317;-62
2022/10/13 02:00:22;;;;;;;21.05;13.18;;;12.00;99.90;;;;;;5033733;28;20047;-62
2022/10/13 02:03:16;;;;;;;19.33;12.65;;;12.00;99.90;;;;;;5033683;28;20025;-62
2022/10/13 02:06:12;;;;;;;23.35;13.77;;;12.10;99.90;;;;;;5033484;28;20025;-62
2022/10/13 02:08:44;;;;;;;18.83;12.68;;;12.00;99.90;;;;;;5033024;28;20014;-62
2022/10/13 02:11:16;;;;;;;17.25;12.00;;;12.00;99.90;;;;;;5033267;28;20390;-62
2022/10/13 02:13:46;;;;;;;22.80;12.75;;;12.00;99.90;;;;;;5030381;28;20557;-62
2022/10/13 02:16:14;;;;;;;19.50;12.45;;;12.00;99.90;;;;;;5033451;28;20025;-62
2022/10/13 02:18:41;;;;;;;21.17;13.43;;;12.00;99.90;;;;;;5033051;28;20098;-62
2022/10/13 02:21:06;;;;;;;20.13;13.45;;;12.00;99.90;;;;;;5047101;28;20057;-62
2022/10/13 02:23:32;;;;;;;17.67;11.88;;;12.00;99.90;;;;;;5033104;28;20057;-62
2022/10/13 02:25:59;;;;;;;18.92;13.15;;;12.00;99.90;;;;;;5033115;28;20060;-62
2022/10/13 02:28:25;;;;;;;20.33;13.05;;;12.00;99.90;;;;;;5033340;28;20025;-62
2022/10/13 02:30:51;;;;;;;18.92;12.57;;;12.00;99.90;;;;;;5033131;28;20504;-62
2022/10/13 02:33:17;;;;;;;23.13;12.77;;;12.00;99.90;;;;;;5032923;28;20042;-62
2022/10/13 02:35:42;;;;;;;21.55;13.32;;;12.00;99.90;;;;;;5048489;28;20036;-62
2022/10/13 02:38:08;;;;;;;22.27;13.40;;;12.00;99.90;;;;;;5032568;28;20434;-62
2022/10/13 02:40:34;;;;;;;21.98;13.10;;;12.00;99.90;;;;;;5033253;28;20021;-62
2022/10/13 02:43:00;;;;;;;18.20;11.55;;;12.00;99.90;;;;;;5031363;28;20490;-62
2022/10/13 02:45:25;;;;;;;20.23;12.52;;;12.00;99.90;;;;;;5032832;28;20041;-62
2022/10/13 02:47:51;;;;;;;18.40;11.63;;;12.10;99.90;;;;;;5032835;28;20101;-62
2022/10/13 02:50:16;;;;;;;22.35;12.63;;;12.10;99.90;;;;;;5032720;28;20073;-62
2022/10/13 02:52:42;;;;;;;22.90;13.40;;;12.10;99.90;;;;;;5029867;28;20111;-62
2022/10/13 02:55:08;;;;;;;20.15;13.18;;;12.10;99.90;;;;;;5032841;28;20108;-62
2022/10/13 02:57:34;;;;;;;22.10;13.43;;;12.10;99.90;;;;;;5032351;28;20025;-62
2022/10/13 02:59:59;;;;;;;21.13;13.05;;;12.10;99.90;;;;;;5047776;28;20253;-62
2022/10/13 03:02:26;;;;;;;17.15;11.82;;;12.10;99.90;;;;;;5032114;28;20037;-62
2022/10/13 03:04:53;;;;;;;23.75;12.73;;;12.10;99.90;;;;;;5032473;28;20470;-62
2022/10/13 03:07:18;;;;;;;18.17;12.45;;;12.10;99.90;;;;;;5032435;28;20442;-62
2022/10/13 03:09:44;;;;;;;23.02;13.43;;;12.10;99.90;;;;;;5047751;28;20555;-62
2022/10/13 03:12:09;;;;;;;19.98;12.13;;;12.10;99.90;;;;;;5032606;28;20470;-62
2022/10/13 03:14:35;;;;;;;17.98;11.38;;;12.10;99.90;;;;;;5028516;28;20113;-62
2022/10/13 03:17:01;;;;;;;21.77;12.10;;;12.10;99.90;;;;;;5030498;28;20047;-62
2022/10/13 03:19:26;;;;;;;22.23;13.10;;;12.10;99.90;;;;;;5032150;28;20068;-62
2022/10/13 03:21:52;;;;;;;18.05;12.60;;;12.10;99.90;;;;;;5031713;28;20021;-62
2022/10/13 03:24:17;;;;;;;22.92;13.45;;;12.10;99.90;;;;;;5032096;28;20483;-62
2022/10/13 03:26:43;;;;;;;17.98;12.07;;;12.10;99.90;;;;;;5031901;28;20104;-62
2022/10/13 03:29:14;;;;;;;20.90;12.40;;;12.10;99.90;;;;;;5032258;28;20100;-62
2022/10/13 03:31:40;;;;;;;18.67;11.80;;;12.10;99.90;;;;;;5031423;28;20013;-62
2022/10/13 03:34:06;;;;;;;21.38;12.73;;;12.10;99.90;;;;;;5032095;28;20104;-62
2022/10/13 03:36:32;;;;;;;20.65;14.18;;;12.10;99.90;;;;;;5031796;28;22407;-62
2022/10/13 03:38:57;;;;;;;20.60;13.15;;;12.10;99.90;;;;;;5014984;28;20060;-62
2022/10/13 03:41:23;;;;;;;24.90;13.05;;;12.10;99.90;;;;;;5031321;28;20045;-62
2022/10/13 03:43:48;;;;;;;19.88;12.23;;;12.10;99.90;;;;;;5031704;28;20417;-62
2022/10/13 03:46:16;;;;;;;17.30;12.48;;;12.10;99.90;;;;;;5031537;28;20378;-62
2022/10/13 03:48:41;;;;;;;17.05;12.05;;;12.10;99.90;;;;;;5031995;28;20017;-62
2022/10/13 03:51:13;;;;;;;18.15;12.02;;;12.10;99.90;;;;;;5031591;28;20382;-62
2022/10/13 03:53:39;;;;;;;17.77;12.70;;;12.10;99.90;;;;;;5031455;28;20010;-62
2022/10/13 03:56:06;;;;;;;18.77;12.20;;;12.20;99.90;;;;;;5031304;28;20029;-62
2022/10/13 03:58:33;;;;;;;22.98;13.68;;;12.10;99.90;;;;;;5031908;28;20030;-62
2022/10/13 04:01:05;;;;;;;23.17;14.27;;;12.10;99.90;;;;;;5015460;28;20064;-62
2022/10/13 04:03:31;;;;;;;18.30;11.38;;;12.10;99.90;;;;;;5029481;28;20104;-62
2022/10/13 04:06:04;;;;;;;19.80;13.02;;;12.20;99.90;;;;;;5045843;28;20047;-62
2022/10/13 04:08:31;;;;;;;17.55;11.15;;;12.20;99.90;;;;;;5031392;28;20060;-62
2022/10/13 04:11:08;;;;;;;17.80;11.75;;;12.20;99.90;;;;;;5046526;28;20017;-62
2022/10/13 04:13:34;;;;;;;21.00;12.25;;;12.20;99.90;;;;;;5031117;28;20021;-62
2022/10/13 04:16:05;;;;;;;18.15;12.73;;;12.20;99.90;;;;;;5030824;28;20032;-62
2022/10/13 04:18:30;;;;;;;21.13;13.30;;;12.20;99.90;;;;;;5023758;28;20030;-62
2022/10/13 04:20:56;;;;;;;20.17;12.82;;;12.20;99.90;;;;;;5025915;28;20034;-62
2022/10/13 04:23:22;;;;;;;20.90;11.90;;;12.20;99.90;;;;;;5022052;28;20029;-62
2022/10/13 04:25:47;;;;;;;19.95;12.00;;;12.20;99.90;;;;;;5023638;28;20018;-62
2022/10/13 04:28:13;;;;;;;22.00;13.13;;;12.20;99.90;;;;;;5023329;28;20079;-62
2022/10/13 04:30:38;;;;;;;19.85;13.25;;;12.20;99.90;;;;;;5019246;28;20028;-62
2022/10/13 04:33:04;;;;;;;18.02;12.88;;;12.20;99.90;;;;;;5021900;28;20041;-62
2022/10/13 04:35:30;;;;;;;22.17;12.68;;;12.20;99.90;;;;;;5016821;28;20053;-62
2022/10/13 04:37:58;;;;;;;17.30;11.82;;;12.20;99.90;;;;;;5018731;28;20116;-62
2022/10/13 04:40:25;;;;;;;18.60;11.52;;;12.20;99.90;;;;;;5016482;28;20017;-62
2022/10/13 04:42:50;;;;;;;19.80;12.30;;;12.20;99.90;;;;;;5016321;28;20128;-62
2022/10/13 04:45:16;;;;;;;18.63;12.10;;;12.20;99.90;;;;;;5010516;28;20064;-62
2022/10/13 04:47:42;;;;;;;18.55;12.10;;;12.20;99.90;;;;;;5043494;28;20033;-62
2022/10/13 04:50:08;;;;;;;25.30;14.30;;;12.20;99.90;;;;;;5023476;28;20056;-62
2022/10/13 04:52:34;;;;;;;21.65;12.93;;;12.20;99.90;;;;;;5023608;28;20037;-62
2022/10/13 04:55:00;;;;;;;23.98;13.20;;;12.20;99.90;;;;;;5027744;28;20444;-62
2022/10/13 04:57:25;;;;;;;21.63;12.10;;;12.20;99.90;;;;;;5021972;28;20033;-62
2022/10/13 04:59:51;;;;;;;19.00;12.00;;;12.10;99.90;;;;;;5029804;28;20102;-62
2022/10/13 05:02:16;;;;;;;19.63;12.05;;;12.10;99.90;;;;;;5029735;28;20469;-62
2022/10/13 05:04:42;;;;;;;17.80;12.27;;;12.20;99.90;;;;;;5026862;28;20038;-63
2022/10/13 05:07:07;;;;;;;24.30;12.70;;;12.20;99.90;;;;;;5024613;28;20034;-62
2022/10/13 05:09:33;;;;;;;17.35;11.95;;;12.20;99.90;;;;;;5032325;28;20037;-62
2022/10/13 05:11:58;;;;;;;19.02;12.20;;;12.20;99.90;;;;;;5034042;28;20022;-62
2022/10/13 05:14:24;;;;;;;20.58;11.52;;;12.20;99.90;;;;;;5029627;28;20033;-62
2022/10/13 05:16:49;;;;;;;18.00;12.18;;;12.20;99.90;;;;;;5035770;28;20110;-62
2022/10/13 05:19:15;;;;;;;17.77;11.85;;;12.20;99.90;;;;;;5035125;28;20029;-62
2022/10/13 05:21:41;;;;;;;20.48;12.85;;;12.20;99.90;;;;;;5035930;28;20025;-62
2022/10/13 05:24:12;;;;;;;21.63;11.45;;;12.20;99.90;;;;;;5035216;28;20108;-62
2022/10/13 05:26:38;;;;;;;15.20;10.30;;;12.30;99.90;;;;;;5034227;28;20029;-62
2022/10/13 05:29:04;;;;;;;18.77;10.15;;;12.30;99.90;;;;;;5034790;28;20108;-62
2022/10/13 05:31:31;;;;;;;17.02;10.95;;;12.30;99.90;;;;;;5033213;28;20036;-62
2022/10/13 05:33:57;;;;;;;18.55;12.02;;;12.40;99.90;;;;;;5029459;28;20068;-62
2022/10/13 05:36:30;;;;;;;15.23;10.05;;;12.40;99.90;;;;;;5033014;28;20025;-62
2022/10/13 05:38:58;;;;;;;20.63;11.55;;;12.40;99.90;;;;;;5026155;28;20025;-62
2022/10/13 05:41:25;;;;;;;16.77;11.15;;;12.40;99.90;;;;;;5035138;28;20072;-62
2022/10/13 05:43:56;;;;;;;17.63;10.20;;;12.40;99.90;;;;;;5026203;28;20101;-62
2022/10/13 05:46:22;;;;;;;14.02;9.65;;;12.40;99.90;;;;;;5034479;28;20056;-62
2022/10/13 05:48:47;;;;;;;17.10;10.15;;;12.40;99.90;;;;;;5035358;28;20021;-62
2022/10/13 05:51:16;;;;;;;14.48;10.00;;;12.50;99.90;;;;;;5027791;28;20505;-62
2022/10/13 05:53:46;;;;;;;16.45;11.57;;;12.50;99.90;;;;;;5025759;28;20030;-62
2022/10/13 05:56:18;;;;;;;20.65;12.15;;;12.50;99.90;;;;;;5025245;28;20116;-62
2022/10/13 05:58:46;;;;;;;21.40;13.45;;;12.50;99.90;;;;;;5022105;28;20029;-62
2022/10/13 06:01:16;;;;;;;20.00;11.82;;;12.50;99.90;;;;;;5025698;28;20026;-62
2022/10/13 06:03:42;;;;;;;18.08;13.00;;;12.50;99.90;;;;;;5026004;28;20101;-62
2022/10/13 06:06:08;;;;;;;24.08;12.82;;;12.40;99.90;;;;;;5020170;28;20124;-62
2022/10/13 06:08:35;;;;;;;17.55;12.65;;;12.40;99.90;;;;;;5020527;28;20017;-62
2022/10/13 06:11:02;;;;;;;19.42;11.90;;;12.40;99.90;;;;;;5027546;28;20025;-62
2022/10/13 06:13:27;;;;;;;16.20;11.57;;;12.40;99.90;;;;;;5028802;28;20033;-62
2022/10/13 06:15:53;;;;;;;17.05;11.60;;;12.40;99.90;;;;;;5033086;28;20037;-62
2022/10/13 06:18:18;;;;;;;19.23;12.23;;;12.40;99.90;;;;;;5023633;28;20028;-63
2022/10/13 06:20:44;;;;;;;24.65;12.43;;;12.50;99.90;;;;;;5031759;28;20041;-62
2022/10/13 06:23:09;;;;;;;19.00;12.18;;;12.50;99.90;;;;;;5034362;28;20053;-62
2022/10/13 06:25:35;;;;;;;20.75;13.20;;;12.50;99.90;;;;;;5034347;28;20100;-62
2022/10/13 06:28:01;;;;;;;20.20;12.45;;;12.50;99.90;;;;;;5032720;28;20036;-62
2022/10/13 06:30:27;;;;;;;18.40;12.05;;;12.60;99.90;;;;;;5033249;28;20389;-62
2022/10/13 06:32:54;;;;;;;15.57;11.60;;;12.60;99.90;;;;;;5047646;28;20053;-63
2022/10/13 06:35:21;;;;;;;18.60;12.80;;;12.60;99.90;;;;;;5033316;28;20371;-62
2022/10/13 06:37:47;;;;;;;21.35;12.88;;;12.60;99.90;;;;;;5029415;28;20474;-63
2022/10/13 06:40:13;;;;;;;20.67;12.95;;;12.60;99.90;;;;;;5031548;28;20017;-62
2022/10/13 06:42:39;;;;;;;20.42;13.13;;;12.60;99.90;;;;;;5031398;28;20054;-62
2022/10/13 06:45:05;;;;;;;17.45;12.35;;;12.60;99.90;;;;;;5034555;28;20021;-62
2022/10/13 06:47:31;;;;;;;19.30;13.00;;;12.70;99.90;;;;;;5034218;28;20540;-62
2022/10/13 06:49:56;;;;;;;21.70;12.60;;;12.60;99.90;;;;;;5031453;28;20030;-62
2022/10/13 06:52:22;;;;;;;18.25;11.95;;;12.70;99.90;;;;;;5027451;28;20410;-62
2022/10/13 06:54:47;;;;;;;20.63;13.27;;;12.70;99.90;;;;;;5021820;28;20061;-62
2022/10/13 06:57:13;;;;;;;22.00;12.52;;;12.70;99.90;;;;;;5029588;28;20069;-62
2022/10/13 06:59:38;;;;;;;18.52;12.45;;;12.70;99.90;;;;;;5032165;28;20041;-62
2022/10/13 07:02:04;;;;;;;17.33;13.00;;;12.70;99.90;;;;;;5031919;28;20026;-62
2022/10/13 07:04:29;;;;;;;21.50;12.68;;;12.70;99.90;;;;;;5032790;28;20037;-62
2022/10/13 07:06:55;;;;;;;18.85;12.93;;;12.70;99.90;;;;;;5033315;28;20466;-62
2022/10/13 07:09:21;;;;;;;19.45;11.88;;;12.80;99.90;;;;;;5031756;28;20531;-62
2022/10/13 07:11:46;;;;;;;19.73;12.45;;;12.80;99.90;;;;;;5031975;28;20474;-62
2022/10/13 07:14:13;;;;;;;20.45;12.48;;;12.80;99.90;;;;;;5031737;28;20030;-62
2022/10/13 07:16:38;;;;;;;20.45;12.65;;;12.80;99.90;;;;;;5028696;28;20386;-62
2022/10/13 07:19:04;;;;;;;21.30;13.60;;;12.80;99.90;;;;;;5033399;28;20466;-62
2022/10/13 07:21:30;;;;;;;20.58;14.23;;;12.80;99.90;;;;;;5024265;28;20478;-62
2022/10/13 07:23:55;;;;;;;20.08;13.82;;;12.80;99.90;;;;;;5028954;28;20032;-62
2022/10/13 07:26:21;;;;;;;17.92;12.90;;;12.80;99.90;;;;;;5033244;28;20509;-63
2022/10/13 07:28:47;;;;;;;20.77;14.43;;;12.80;99.90;;;;;;5029071;28;20093;-62
2022/10/13 07:31:18;;;;;;;22.90;13.30;;;12.80;99.90;;;;;;5032950;28;20075;-62
2022/10/13 07:33:45;;;;;;;23.00;14.38;;;12.80;99.90;;;;;;5033291;28;20485;-62
2022/10/13 07:36:12;;;;;;;22.38;14.32;;;12.80;99.90;;;;;;5032556;28;20485;-62
2022/10/13 07:38:38;;;;;;;22.23;14.95;;;12.80;99.90;;;;;;5048309;28;20083;-62
2022/10/13 07:41:05;;;;;;;23.45;13.73;;;12.80;99.90;;;;;;5027877;28;20030;-62
2022/10/13 07:43:31;;;;;;;21.27;13.43;;;12.90;99.90;;;;;;5027072;28;20068;-62
2022/10/13 07:45:58;;;;;;;26.67;14.85;;;12.90;99.90;;;;;;5031722;28;20413;-62
2022/10/13 07:48:25;;;;;;;20.05;13.23;;;13.00;99.90;;;;;;5033209;28;20154;-62
2022/10/13 07:50:50;;;;;;;19.60;13.95;;;13.00;99.90;;;;;;5031170;28;20025;-62
2022/10/13 07:53:16;;;;;;;19.55;13.52;;;13.10;99.90;;;;;;5026296;28;20030;-62
2022/10/13 07:55:41;;;;;;;18.75;12.77;;;13.10;99.90;;;;;;5032968;28;20025;-62
2022/10/13 07:58:07;;;;;;;21.45;13.63;;;13.20;99.90;;;;;;5032726;28;20029;-62
2022/10/13 08:00:32;;;;;;;18.67;13.48;;;13.20;99.90;;;;;;5032648;28;20109;-63
2022/10/13 08:02:58;;;;;;;24.98;15.63;;;13.20;99.90;;;;;;5032704;28;20049;-62
2022/10/13 08:05:23;;;;;;;19.90;14.65;;;13.30;99.90;;;;;;5032305;28;20029;-62
2022/10/13 08:07:49;;;;;;;19.25;14.43;;;13.20;99.90;;;;;;5032792;28;20083;-62
2022/10/13 08:10:15;;;;;;;21.38;14.50;;;13.30;99.90;;;;;;5032259;28;20469;-62
2022/10/13 08:12:40;;;;;;;21.17;14.25;;;13.30;99.90;;;;;;5031714;28;20485;-63
2022/10/13 08:15:06;;;;;;;21.90;15.50;;;13.30;99.90;;;;;;5030586;28;20436;-62
2022/10/13 08:17:32;;;;;;;22.10;14.45;;;13.30;99.90;;;;;;5028024;28;20029;-62
2022/10/13 08:19:58;;;;;;;21.95;16.13;;;13.30;99.90;;;;;;5032264;28;20085;-62
2022/10/13 08:22:24;;;;;;;28.92;15.45;;;13.40;99.90;;;;;;5019669;28;20105;-62
2022/10/13 08:24:49;;;;;;;21.30;14.90;;;13.40;99.90;;;;;;5032642;28;20032;-62
2022/10/13 08:27:20;;;;;;;22.20;14.85;;;13.40;99.90;;;;;;5031953;28;20393;-62
2022/10/13 08:29:46;;;;;;;23.40;14.55;;;13.50;99.90;;;;;;5019988;28;20456;-62
2022/10/13 08:32:11;;;;;;;23.00;14.70;;;13.50;99.90;;;;;;5023607;28;20608;-63
2022/10/13 08:34:37;;;;;;;23.80;13.88;;;13.60;99.90;;;;;;5019769;28;20095;-63
2022/10/13 08:37:02;;;;;;;24.08;16.05;;;13.70;99.90;;;;;;5030811;28;20025;-63
2022/10/13 08:39:29;;;;;;;27.60;15.13;;;13.80;99.90;;;;;;5040822;28;20104;-62
2022/10/13 08:41:56;;;;;;;24.20;14.93;;;13.80;99.90;;;;;;5032746;28;20489;-63
2022/10/13 08:44:34;;;;;;;21.58;14.52;;;13.90;99.90;;;;;;5029937;28;20096;-63
2022/10/13 08:47:09;;;;;;;26.27;15.30;;;14.00;99.90;;;;;;5027303;28;20362;-63
2022/10/13 08:49:34;;;;;;;22.65;15.25;;;14.00;99.90;;;;;;5050438;28;20030;-63
2022/10/13 08:52:04;;;;;;;30.05;15.75;;;14.10;99.90;;;;;;5034382;28;20032;-63
2022/10/13 08:54:30;;;;;;;20.65;15.32;;;14.10;99.90;;;;;;5042323;28;20028;-62
2022/10/13 08:56:55;;;;;;;26.83;15.68;;;14.10;99.90;;;;;;5041546;28;20068;-62
2022/10/13 08:59:21;;;;;;;23.23;15.52;;;14.10;99.90;;;;;;5035034;28;20041;-62
2022/10/13 09:01:52;;;;;;;26.00;15.32;;;14.20;99.90;;;;;;5031897;28;20022;-62
2022/10/13 09:04:25;;;;;;;24.48;14.75;;;14.30;99.90;;;;;;5037577;28;20030;-63
2022/10/13 09:07:08;;;;;;;25.05;15.98;;;14.30;99.90;;;;;;5033313;28;20048;-63
2022/10/13 09:09:35;;;;;;;21.60;14.18;;;14.50;99.90;;;;;;5032175;28;20033;-63
2022/10/13 09:12:01;;;;;;;25.63;16.45;;;14.50;99.90;;;;;;5036024;28;20033;-62
2022/10/13 09:14:30;;;;;;;25.33;16.85;;;14.50;99.90;;;;;;5036905;28;20033;-62
2022/10/13 09:17:11;;;;;;;24.53;14.97;;;14.60;99.90;;;;;;5034380;28;20021;-62
2022/10/13 09:19:36;;;;;;;21.85;15.38;;;14.50;99.90;;;;;;5029572;28;20044;-63
2022/10/13 09:22:22;;;;;;;23.13;15.00;;;14.50;99.90;;;;;;5027340;28;20473;-64
2022/10/13 09:25:06;;;;;;;24.50;16.05;;;14.70;99.90;;;;;;5029119;28;20025;-62
2022/10/13 09:27:46;;;;;;;20.20;15.13;;;14.60;99.90;;;;;;5031707;28;20486;-63
2022/10/13 09:30:45;;;;;;;22.75;16.00;;;14.60;99.90;;;;;;5030446;28;20029;-63
2022/10/13 09:33:11;;;;;;;21.83;15.15;;;14.60;99.90;;;;;;5031842;28;20028;-63
2022/10/13 09:35:38;;;;;;;24.98;16.23;;;14.60;99.90;;;;;;5023256;28;20033;-63
2022/10/13 09:38:19;;;;;;;26.63;15.50;;;14.60;99.90;;;;;;5029788;28;20101;-63
2022/10/13 09:41:03;;;;;;;20.77;15.35;;;14.60;99.90;;;;;;5031616;28;20064;-63
2022/10/13 09:43:30;;;;;;;21.67;15.05;;;14.70;99.90;;;;;;5031925;28;20037;-63
2022/10/13 09:45:56;;;;;;;22.02;14.82;;;14.70;99.90;;;;;;5034275;28;20022;-63
2022/10/13 09:48:27;;;;;;;22.40;14.55;;;14.80;99.90;;;;;;5041513;28;20022;-63
2022/10/13 09:50:55;;;;;;;23.70;15.75;;;14.80;99.90;;;;;;5038913;28;20469;-63
2022/10/13 09:53:36;;;;;;;18.25;14.27;;;14.90;99.90;;;;;;5030029;28;20034;-63
2022/10/13 09:56:17;;;;;;;25.17;15.18;;;14.90;99.90;;;;;;5034446;28;20026;-63
2022/10/13 09:59:24;;;;;;;21.27;14.35;;;15.00;99.90;;;;;;5027555;28;20091;-63
2022/10/13 10:01:53;;;;;;;22.90;13.57;;;15.00;99.90;;;;;;5018975;28;20382;-63
2022/10/13 10:04:36;;;;;;;21.73;13.70;;;15.00;99.90;;;;;;5033447;28;20458;-63
2022/10/13 10:07:16;;;;;;;20.83;13.68;;;15.10;99.90;;;;;;5029380;28;20034;-63
2022/10/13 10:09:48;;;;;;;19.23;12.88;;;15.20;99.90;;;;;;5035285;28;20032;-63
2022/10/13 10:12:18;;;;;;;21.77;13.60;;;15.20;99.90;;;;;;5037687;28;20379;-63
2022/10/13 10:14:44;;;;;;;18.60;12.50;;;15.30;99.90;;;;;;5033763;28;20068;-63
2022/10/13 10:17:26;;;;;;;18.73;12.52;;;15.30;99.90;;;;;;5034988;28;20072;-63
2022/10/13 10:20:10;;;;;;;22.33;14.82;;;15.40;99.80;;;;;;5036291;28;20021;-63
2022/10/13 10:22:54;;;;;;;18.83;14.55;;;15.30;99.70;;;;;;5022773;28;20029;-63
2022/10/13 10:25:32;;;;;;;22.27;14.20;;;15.20;99.70;;;;;;5038272;28;20025;-63
2022/10/13 10:28:27;;;;;;;20.13;13.18;;;15.20;99.90;;;;;;5033618;28;20079;-63
2022/10/13 10:31:15;;;;;;;21.75;13.10;;;15.10;99.90;;;;;;5028683;28;20805;-63
2022/10/13 10:34:19;;;;;;;22.33;13.27;;;15.10;99.90;;;;;;5041260;28;20041;-63
2022/10/13 10:37:13;;;;;;;20.73;13.68;;;15.00;99.90;;;;;;5021041;28;20098;-63
2022/10/13 10:39:58;;;;;;;20.00;13.32;;;14.90;99.90;;;;;;5043160;28;20531;-63
2022/10/13 10:42:39;;;;;;;21.52;14.07;;;14.90;99.90;;;;;;5039569;28;20053;-63
2022/10/13 10:45:15;;;;;;;21.10;15.48;;;14.80;99.90;;;;;;5039234;28;20025;-63
2022/10/13 10:47:44;;;;;;;23.40;14.23;;;14.70;99.90;;;;;;5041430;28;20049;-63
2022/10/13 10:50:14;;;;;;;21.20;14.43;;;14.70;99.90;;;;;;5037400;28;20091;-63
2022/10/13 10:53:02;;;;;;;19.23;14.85;;;14.50;99.90;;;;;;5031784;28;20056;-63
2022/10/13 10:55:46;;;;;;;23.15;14.77;;;14.50;99.90;;;;;;5040638;28;20060;-63
2022/10/13 10:58:30;;;;;;;25.73;16.20;;;14.40;99.90;;;;;;5039847;28;20017;-63
2022/10/13 11:01:06;;;;;;;18.75;14.75;;;14.30;99.90;;;;;;5029763;28;20026;-63
2022/10/13 11:03:44;;;;;;;22.08;15.23;;;14.30;99.90;;;;;;5036534;28;20021;-63
2022/10/13 11:06:15;;;;;;;22.45;15.70;;;14.30;99.90;;;;;;5035601;28;20026;-63
2022/10/13 11:08:45;;;;;;;25.05;17.52;;;14.30;99.90;;;;;;5036547;28;20032;-63
2022/10/13 11:11:25;;;;;;;23.35;17.05;;;14.30;99.90;;;;;;5045342;28;20018;-63
2022/10/13 11:13:59;;;;;;;21.85;16.45;;;14.30;99.90;;;;;;5029958;28;20097;-63
2022/10/13 11:16:45;;;;;;;25.30;17.00;;;14.20;99.90;;;;;;5057655;28;20112;-63
2022/10/13 11:19:34;;;;;;;26.05;16.00;;;14.20;99.90;;;;;;5033493;28;20033;-63
2022/10/13 11:21:59;;;;;;;24.20;16.25;;;14.10;99.90;;;;;;5033879;28;20028;-63
2022/10/13 11:24:40;;;;;;;25.67;17.13;;;14.10;99.90;;;;;;5031605;28;20029;-63
2022/10/13 11:27:15;;;;;;;23.02;15.55;;;14.10;99.90;;;;;;5029705;28;20018;-63
2022/10/13 11:29:51;;;;;;;24.23;16.85;;;14.10;99.90;;;;;;5025247;28;20375;-63
2022/10/13 11:35:05;;;;;;;25.30;17.55;;;14.10;99.90;;;;;;5030664;28;20405;-63
2022/10/13 11:38:06;;;;;;;22.85;16.33;;;14.00;99.90;;;;;;5033092;28;20030;-63
2022/10/13 11:40:52;;;;;;;27.33;17.50;;;14.00;99.90;;;;;;5032787;28;20363;-63
2022/10/13 11:43:29;;;;;;;24.60;18.00;;;13.90;99.90;;;;;;5033029;28;20053;-63
2022/10/13 11:46:24;;;;;;;23.23;15.70;;;13.90;99.90;;;;;;5035285;28;20025;-63
2022/10/13 11:49:17;;;;;;;25.63;15.70;;;13.90;99.90;;;;;;5030530;28;20386;-62
2022/10/13 11:51:58;;;;;;;22.08;16.67;;;14.00;99.90;;;;;;5024837;28;20053;-63
2022/10/13 11:54:29;;;;;;;23.45;16.15;;;14.00;99.90;;;;;;5039682;28;20044;-63
2022/10/13 11:56:56;;;;;;;19.15;15.32;;;14.00;99.90;;;;;;5034995;28;20056;-63
2022/10/13 11:59:31;;;;;;;22.58;15.75;;;14.00;99.90;;;;;;5026729;28;20064;-63
2022/10/13 12:02:15;;;;;;;25.00;15.60;;;14.00;99.90;;;;;;5025014;28;20022;-63
2022/10/13 12:04:41;;;;;;;22.73;14.73;;;14.00;99.90;;;;;;5041319;28;20021;-63
2022/10/13 12:07:09;;;;;;;19.55;15.77;;;14.00;99.90;;;;;;5023457;28;20516;-63
2022/10/13 12:09:50;;;;;;;24.13;15.55;;;14.00;99.90;;;;;;5036988;28;20445;-63
2022/10/13 12:12:18;;;;;;;27.00;16.75;;;14.00;99.90;;;;;;5034327;28;20398;-63
2022/10/13 12:14:47;;;;;;;23.30;15.90;;;14.00;99.90;;;;;;5036640;28;20036;-63
2022/10/13 12:17:20;;;;;;;19.92;14.32;;;14.00;99.90;;;;;;5038092;28;21589;-63
2022/10/13 12:19:46;;;;;;;24.48;14.43;;;14.10;99.90;;;;;;5024586;28;20381;-63
2022/10/13 12:22:12;;;;;;;22.35;15.52;;;14.10;99.90;;;;;;5030926;28;20493;-63
2022/10/13 12:24:38;;;;;;;19.15;13.77;;;14.10;99.90;;;;;;5027279;28;20033;-63
2022/10/13 12:27:20;;;;;;;19.90;13.45;;;14.10;99.90;;;;;;5031358;28;20030;-63
2022/10/13 12:29:46;;;;;;;21.05;14.02;;;14.10;99.90;;;;;;5033229;28;20033;-63
2022/10/13 12:32:25;;;;;;;20.25;14.23;;;14.10;99.90;;;;;;5026355;28;20033;-63
2022/10/13 12:34:51;;;;;;;18.30;14.32;;;14.10;99.90;;;;;;5023543;28;20100;-63
2022/10/13 12:37:32;;;;;;;18.15;14.02;;;14.10;99.90;;;;;;5028846;28;20112;-63
2022/10/13 12:39:59;;;;;;;22.02;14.38;;;14.10;99.90;;;;;;5026036;28;20028;-63
2022/10/13 12:42:31;;;;;;;18.42;13.40;;;14.10;99.90;;;;;;5037238;28;20041;-63
2022/10/13 12:44:59;;;;;;;26.02;14.27;;;14.10;99.90;;;;;;5037586;28;20029;-63
2022/10/13 12:47:42;;;;;;;20.35;14.10;;;14.10;99.90;;;;;;5032873;28;20033;-63